createdAt,value
2019-05-19T00:01:39.344Z,99873.00
2019-05-19T00:04:21.844Z,99877.00
2019-05-19T00:06:57.560Z,99881.00
2019-05-19T00:09:39.752Z,99874.00
2019-05-19T00:12:29.151Z,99882.00
2019-05-19T00:15:12.650Z,99875.00
2019-05-19T00:17:48.689Z,99879.00
2019-05-19T00:20:31.252Z,99884.00
2019-05-19T00:23:14.377Z,99889.00
2019-05-19T00:25:56.923Z,99881.00
2019-05-19T00:28:32.469Z,99871.00
2019-05-19T00:31:15.888Z,99869.00
2019-05-19T00:33:52.339Z,99869.00
2019-05-19T00:36:35.953Z,99872.00
2019-05-19T00:39:12.917Z,99876.00
2019-05-19T00:41:55.838Z,99867.00
2019-05-19T00:44:32.365Z,99869.00
2019-05-19T00:47:14.864Z,99876.00
2019-05-19T00:49:51.349Z,99872.00
2019-05-19T00:52:33.657Z,99866.00
2019-05-19T00:55:10.084Z,99868.00
2019-05-19T00:57:52.763Z,99877.00
2019-05-19T01:00:29.003Z,99871.00
2019-05-19T01:03:11.241Z,99867.00
2019-05-19T01:05:47.371Z,99866.00
2019-05-19T01:08:30.481Z,99870.00
2019-05-19T01:11:06.212Z,99877.00
2019-05-19T01:13:48.351Z,99884.00
2019-05-19T01:16:24.571Z,99880.00
2019-05-19T01:19:06.200Z,99889.00
2019-05-19T01:21:43.366Z,99881.00
2019-05-19T01:24:25.855Z,99884.00
2019-05-19T01:27:01.755Z,99886.00
2019-05-19T01:29:38.135Z,99883.00
2019-05-19T01:32:14.711Z,99891.00
2019-05-19T01:34:57.268Z,99876.00
2019-05-19T01:37:46.482Z,99874.00
2019-05-19T01:40:29.149Z,99881.00
2019-05-19T01:43:04.592Z,99891.00
2019-05-19T01:45:47.587Z,99879.00
2019-05-19T01:48:24.075Z,99882.00
2019-05-19T01:51:07.356Z,99878.00
2019-05-19T01:53:49.976Z,99875.00
2019-05-19T01:56:26.197Z,99878.00
2019-05-19T01:59:09.288Z,99886.00
2019-05-19T02:01:51.850Z,99877.00
2019-05-19T02:04:34.798Z,99876.00
2019-05-19T02:07:16.896Z,99881.00
2019-05-19T02:10:00.074Z,99882.00
2019-05-19T02:12:43.164Z,99882.00
2019-05-19T02:15:27.037Z,99881.00
2019-05-19T02:18:02.855Z,99885.00
2019-05-19T02:20:45.404Z,99882.00
2019-05-19T02:23:21.903Z,99883.00
2019-05-19T02:26:04.291Z,99889.00
2019-05-19T02:28:53.400Z,99886.00
2019-05-19T02:31:35.941Z,99887.00
2019-05-19T02:34:12.213Z,99893.00
2019-05-19T02:36:55.378Z,99888.00
2019-05-19T02:39:31.354Z,99891.00
2019-05-19T02:42:15.075Z,99897.00
2019-05-19T02:44:51.862Z,99887.00
2019-05-19T02:47:36.735Z,99888.00
2019-05-19T02:50:21.605Z,99882.00
2019-05-19T02:53:07.287Z,99896.00
2019-05-19T02:55:51.169Z,99898.00
2019-05-19T02:58:34.831Z,99891.00
2019-05-19T03:01:17.305Z,99896.00
2019-05-19T03:03:59.727Z,99897.00
2019-05-19T03:06:35.418Z,99899.00
2019-05-19T03:09:11.168Z,99891.00
2019-05-19T03:11:53.142Z,99894.00
2019-05-19T03:14:42.393Z,99898.00
2019-05-19T03:17:24.250Z,99897.00
2019-05-19T03:20:00.586Z,99885.00
2019-05-19T03:22:43.728Z,99884.00
2019-05-19T03:25:19.573Z,99877.00
2019-05-19T03:28:02.728Z,99871.00
2019-05-19T03:30:43.103Z,99881.00
2019-05-19T03:33:26.680Z,99878.00
2019-05-19T03:36:02.684Z,99879.00
2019-05-19T03:38:39.216Z,99878.00
2019-05-19T03:41:15.212Z,99876.00
2019-05-19T03:43:57.549Z,99879.00
2019-05-19T03:46:46.551Z,99890.00
2019-05-19T03:49:29.129Z,99884.00
2019-05-19T03:52:05.734Z,99884.00
2019-05-19T03:54:47.532Z,99883.00
2019-05-19T03:57:30.786Z,99887.00
2019-05-19T04:00:14.908Z,99886.00
2019-05-19T04:02:51.286Z,99886.00
2019-05-19T04:05:34.199Z,99888.00
2019-05-19T04:08:17.348Z,99875.00
2019-05-19T04:10:59.990Z,99873.00
2019-05-19T04:13:35.588Z,99869.00
2019-05-19T04:16:17.747Z,99875.00
2019-05-19T04:18:53.842Z,99880.00
2019-05-19T04:21:48.297Z,99882.00
2019-05-19T04:24:14.331Z,99877.00
2019-05-19T04:26:57.629Z,99887.00
2019-05-19T04:29:40.176Z,99882.00
2019-05-19T04:32:16.008Z,99878.00
2019-05-19T04:34:59.155Z,99873.00
2019-05-19T04:37:41.359Z,99878.00
2019-05-19T04:40:18.153Z,99876.00
2019-05-19T04:43:01.376Z,99873.00
2019-05-19T04:45:37.011Z,99881.00
2019-05-19T04:48:20.038Z,99867.00
2019-05-19T04:50:56.081Z,99870.00
2019-05-19T04:53:38.260Z,99878.00
2019-05-19T04:56:21.362Z,99874.00
2019-05-19T04:59:10.874Z,99885.00
2019-05-19T05:01:53.292Z,99883.00
2019-05-19T05:04:35.832Z,99890.00
2019-05-19T05:10:26.538Z,99882.00
2019-05-19T05:13:09.680Z,99891.00
2019-05-19T05:15:45.781Z,99879.00
2019-05-19T05:18:21.690Z,99883.00
2019-05-19T05:21:05.776Z,99882.00
2019-05-19T05:23:41.634Z,99880.00
2019-05-19T05:26:24.702Z,99877.00
2019-05-19T05:29:01.318Z,99876.00
2019-05-19T05:31:43.857Z,99879.00
2019-05-19T05:34:19.911Z,99885.00
2019-05-19T05:37:02.467Z,99879.00
2019-05-19T05:39:51.562Z,99877.00
2019-05-19T05:42:27.370Z,99873.00
2019-05-19T05:45:10.293Z,99876.00
2019-05-19T05:47:46.306Z,99869.00
2019-05-19T05:50:29.400Z,99878.00
2019-05-19T05:53:11.958Z,99870.00
2019-05-19T05:55:48.080Z,99869.00
2019-05-19T05:58:24.137Z,99871.00
2019-05-19T06:01:06.589Z,99880.00
2019-05-19T06:03:49.978Z,99870.00
2019-05-19T06:06:32.719Z,99873.00
2019-05-19T06:09:15.799Z,99866.00
2019-05-19T06:11:59.002Z,99868.00
2019-05-19T06:14:41.010Z,99874.00
2019-05-19T06:17:23.779Z,99867.00
2019-05-19T06:20:06.549Z,99802.00
2019-05-19T06:22:55.648Z,99873.00
2019-05-19T06:25:27.402Z,99876.00
2019-05-19T06:28:03.472Z,99876.00
2019-05-19T06:30:45.412Z,99865.00
2019-05-19T06:33:21.498Z,99866.00
2019-05-19T06:36:03.765Z,99863.00
2019-05-19T06:38:39.616Z,99857.00
2019-05-19T06:41:21.538Z,99865.00
2019-05-19T06:43:58.140Z,99866.00
2019-05-19T06:46:41.600Z,99671.00
2019-05-19T06:49:17.370Z,99853.00
2019-05-19T06:52:00.162Z,99853.00
2019-05-19T06:54:36.622Z,99852.00
2019-05-19T06:57:18.508Z,99846.00
2019-05-19T06:59:54.656Z,99850.00
2019-05-19T07:02:37.411Z,99851.00
2019-05-19T07:05:14.812Z,99844.00
2019-05-19T07:07:57.553Z,99849.00
2019-05-19T07:10:34.054Z,99851.00
2019-05-19T07:13:16.840Z,99860.00
2019-05-19T07:15:52.808Z,99865.00
2019-05-19T07:18:35.907Z,99871.00
2019-05-19T07:21:12.489Z,99875.00
2019-05-19T07:23:55.082Z,99875.00
2019-05-19T07:26:37.538Z,99880.00
2019-05-19T07:29:13.607Z,99872.00
2019-05-19T07:31:56.311Z,99879.00
2019-05-19T07:34:39.168Z,99889.00
2019-05-19T07:37:15.130Z,99884.00
2019-05-19T07:39:57.110Z,99891.00
2019-05-19T07:42:33.491Z,99898.00
2019-05-19T07:45:19.247Z,99896.00
2019-05-19T07:48:01.482Z,99902.00
2019-05-19T07:50:44.050Z,99897.00
2019-05-19T07:53:20.491Z,99884.00
2019-05-19T07:56:03.408Z,99883.00
2019-05-19T07:58:39.073Z,99879.00
2019-05-19T08:01:21.856Z,99872.00
2019-05-19T08:03:58.164Z,99888.00
2019-05-19T08:06:41.539Z,99890.00
2019-05-19T08:09:17.728Z,99894.00
2019-05-19T08:12:00.108Z,99891.00
2019-05-19T08:14:43.086Z,99884.00
2019-05-19T08:17:26.100Z,99887.00
2019-05-19T08:20:02.173Z,99884.00
2019-05-19T08:22:45.162Z,99884.00
2019-05-19T08:25:21.803Z,99884.00
2019-05-19T08:28:08.779Z,99887.00
2019-05-19T08:30:42.555Z,99881.00
2019-05-19T08:33:25.234Z,99881.00
2019-05-19T08:36:01.712Z,99886.00
2019-05-19T08:38:44.654Z,99891.00
2019-05-19T08:41:28.109Z,99892.00
2019-05-19T08:44:11.848Z,99885.00
2019-05-19T08:46:48.568Z,99885.00
2019-05-19T08:49:30.904Z,99887.00
2019-05-19T08:52:07.422Z,99886.00
2019-05-19T08:54:50.518Z,99896.00
2019-05-19T08:57:25.989Z,99877.00
2019-05-19T09:00:09.054Z,99889.00
2019-05-19T09:02:45.142Z,99885.00
2019-05-19T09:05:27.749Z,99887.00
2019-05-19T09:08:03.757Z,99891.00
2019-05-19T09:10:45.770Z,99885.00
2019-05-19T09:13:28.918Z,99884.00
2019-05-19T09:16:12.360Z,99882.00
2019-05-19T09:18:55.413Z,99873.00
2019-05-19T09:21:31.658Z,99873.00
2019-05-19T09:24:29.286Z,99881.00
2019-05-19T09:26:52.366Z,99879.00
2019-05-19T09:29:35.624Z,99879.00
2019-05-19T09:32:18.074Z,99878.00
2019-05-19T09:35:00.320Z,99877.00
2019-05-19T09:37:36.030Z,99879.00
2019-05-19T09:40:22.030Z,99885.00
2019-05-19T09:43:10.850Z,99880.00
2019-05-19T09:45:52.735Z,99874.00
2019-05-19T09:48:28.904Z,99880.00
2019-05-19T09:51:11.960Z,99883.00
2019-05-19T09:53:47.513Z,99880.00
2019-05-19T09:56:30.179Z,99879.00
2019-05-19T09:59:06.316Z,99875.00
2019-05-19T10:01:49.047Z,99880.00
2019-05-19T10:04:25.241Z,99881.00
2019-05-19T10:07:08.028Z,99876.00
2019-05-19T10:10:11.713Z,99873.00
2019-05-19T10:13:00.685Z,99874.00
2019-05-19T10:15:37.248Z,99870.00
2019-05-19T10:18:19.971Z,99869.00
2019-05-19T10:21:02.579Z,99877.00
2019-05-19T10:23:38.959Z,99876.00
2019-05-19T10:26:21.080Z,99868.00
2019-05-19T10:29:04.172Z,99867.00
2019-05-19T10:31:54.456Z,99865.00
2019-05-19T10:34:30.392Z,99864.00
2019-05-19T10:37:19.393Z,99857.00
2019-05-19T10:40:01.332Z,99865.00
2019-05-19T10:42:43.867Z,99870.00
2019-05-19T10:45:33.638Z,99878.00
2019-05-19T10:48:16.074Z,99874.00
2019-05-19T10:50:51.744Z,99878.00
2019-05-19T10:53:33.765Z,99873.00
2019-05-19T10:56:10.123Z,99876.00
2019-05-19T10:58:53.517Z,99879.00
2019-05-19T11:01:29.846Z,99872.00
2019-05-19T11:04:11.931Z,99871.00
2019-05-19T11:06:48.475Z,99871.00
2019-05-19T11:09:30.385Z,99872.00
2019-05-19T11:12:13.094Z,99872.00
2019-05-19T11:15:01.931Z,99874.00
2019-05-19T11:17:37.422Z,99867.00
2019-05-19T11:20:20.155Z,99868.00
2019-05-19T11:23:02.754Z,99861.00
2019-05-19T11:25:51.484Z,99858.00
2019-05-19T11:28:29.737Z,99860.00
2019-05-19T11:31:06.067Z,99859.00
2019-05-19T11:33:49.193Z,99857.00
2019-05-19T11:36:31.744Z,99848.00
2019-05-19T11:39:15.942Z,99854.00
2019-05-19T11:41:52.495Z,99843.00
2019-05-19T11:44:28.790Z,99838.00
2019-05-19T11:47:11.735Z,99836.00
2019-05-19T11:49:47.569Z,99839.00
2019-05-19T11:52:30.773Z,99839.00
2019-05-19T11:55:13.922Z,99829.00
2019-05-19T11:57:50.068Z,99834.00
2019-05-19T12:00:33.001Z,99827.00
2019-05-19T12:03:15.583Z,99829.00
2019-05-19T12:05:51.177Z,99826.00
2019-05-19T12:08:34.087Z,99829.00
2019-05-19T12:11:23.592Z,99827.00
2019-05-19T12:13:59.201Z,99820.00
2019-05-19T12:16:41.431Z,99837.00
2019-05-19T12:19:16.881Z,99830.00
2019-05-19T12:21:59.910Z,99819.00
2019-05-19T12:24:35.682Z,99821.00
2019-05-19T12:27:12.224Z,99823.00
2019-05-19T12:29:48.554Z,99821.00
2019-05-19T12:32:31.854Z,99826.00
2019-05-19T12:35:08.402Z,99820.00
2019-05-19T12:37:50.902Z,99823.00
2019-05-19T12:40:27.130Z,99811.00
2019-05-19T12:43:09.222Z,99812.00
2019-05-19T12:45:45.348Z,99807.00
2019-05-19T12:48:30.631Z,99808.00
2019-05-19T12:51:06.866Z,99800.00
2019-05-19T12:53:49.073Z,99799.00
2019-05-19T12:56:38.756Z,99794.00
2019-05-19T12:59:08.973Z,99791.00
2019-05-19T13:01:45.439Z,99790.00
2019-05-19T13:04:27.340Z,99790.00
2019-05-19T13:07:02.877Z,99787.00
2019-05-19T13:09:38.928Z,99790.00
2019-05-19T13:12:21.188Z,99788.00
2019-05-19T13:14:56.880Z,99802.00
2019-05-19T13:17:32.607Z,99803.00
2019-05-19T13:20:15.332Z,99794.00
2019-05-19T13:22:58.179Z,99794.00
2019-05-19T13:25:34.312Z,99794.00
2019-05-19T13:28:16.966Z,99795.00
2019-05-19T13:30:52.971Z,99789.00
2019-05-19T13:33:35.736Z,99784.00
2019-05-19T13:36:12.113Z,99786.00
2019-05-19T13:38:54.934Z,99782.00
2019-05-19T13:41:31.998Z,99780.00
2019-05-19T13:44:14.875Z,99781.00
2019-05-19T13:46:57.745Z,99792.00
2019-05-19T13:49:47.107Z,99792.00
2019-05-19T13:52:22.855Z,99789.00
2019-05-19T13:55:04.975Z,99798.00
2019-05-19T13:57:40.734Z,99797.00
2019-05-19T14:00:23.812Z,99797.00
2019-05-19T14:03:06.154Z,99783.00
2019-05-19T14:05:41.960Z,99774.00
2019-05-19T14:08:24.803Z,99766.00
2019-05-19T14:11:01.157Z,99759.00
2019-05-19T14:13:44.051Z,99758.00
2019-05-19T14:16:26.449Z,99753.00
2019-05-19T14:19:08.855Z,99742.00
2019-05-19T14:21:45.374Z,99737.00
2019-05-19T14:24:27.912Z,99739.00
2019-05-19T14:27:03.370Z,99735.00
2019-05-19T14:29:45.235Z,99745.00
2019-05-19T14:32:28.067Z,99735.00
2019-05-19T14:35:04.330Z,99735.00
2019-05-19T14:37:47.327Z,99739.00
2019-05-19T14:40:36.697Z,99747.00
2019-05-19T14:43:38.801Z,99735.00
2019-05-19T14:46:15.254Z,99743.00
2019-05-19T14:48:57.213Z,99739.00
2019-05-19T14:51:39.722Z,99737.00
2019-05-19T14:54:16.096Z,99738.00
2019-05-19T14:56:58.996Z,99729.00
2019-05-19T14:59:42.785Z,99718.00
2019-05-19T15:02:25.121Z,99708.00
2019-05-19T15:05:08.102Z,99704.00
2019-05-19T15:07:44.185Z,99710.00
2019-05-19T15:10:26.690Z,99701.00
2019-05-19T15:13:02.727Z,99703.00
2019-05-19T15:15:39.052Z,99711.00
2019-05-19T15:18:21.656Z,99699.00
2019-05-19T15:20:57.627Z,99699.00
2019-05-19T15:23:40.298Z,99707.00
2019-05-19T15:26:27.187Z,99706.00
2019-05-19T15:29:09.656Z,99706.00
2019-05-19T15:31:52.483Z,99716.00
2019-05-19T15:34:28.280Z,99710.00
2019-05-19T15:37:10.789Z,99706.00
2019-05-19T15:39:52.890Z,99709.00
2019-05-19T15:42:29.060Z,99708.00
2019-05-19T15:45:12.586Z,99703.00
2019-05-19T15:47:48.238Z,99704.00
2019-05-19T15:50:26.159Z,99703.00
2019-05-19T15:53:08.097Z,99702.00
2019-05-19T15:55:44.319Z,99698.00
2019-05-19T15:58:27.261Z,99698.00
2019-05-19T16:01:24.346Z,99703.00
2019-05-19T16:03:59.885Z,99704.00
2019-05-19T16:06:42.328Z,99703.00
2019-05-19T16:09:17.982Z,99714.00
2019-05-19T16:12:01.173Z,99717.00
2019-05-19T16:14:36.967Z,99711.00
2019-05-19T16:17:19.379Z,99710.00
2019-05-19T16:20:10.819Z,99705.00
2019-05-19T16:22:53.499Z,99711.00
2019-05-19T16:25:29.693Z,99709.00
2019-05-19T16:28:06.095Z,99720.00
2019-05-19T16:30:48.409Z,99713.00
2019-05-19T16:33:30.987Z,99714.00
2019-05-19T16:36:08.026Z,99722.00
2019-05-19T16:38:50.667Z,99725.00
2019-05-19T16:41:26.418Z,99718.00
2019-05-19T16:44:09.747Z,99722.00
2019-05-19T16:46:45.444Z,99729.00
2019-05-19T16:49:28.308Z,99728.00
2019-05-19T16:52:17.607Z,99729.00
2019-05-19T16:55:11.327Z,99725.00
2019-05-19T16:57:53.866Z,99719.00
2019-05-19T17:00:43.472Z,99726.00
2019-05-19T17:03:19.407Z,99727.00
2019-05-19T17:06:02.221Z,99729.00
2019-05-19T17:08:37.950Z,99731.00
2019-05-19T17:11:21.326Z,99730.00
2019-05-19T17:13:57.696Z,99736.00
2019-05-19T17:16:40.680Z,99740.00
2019-05-19T17:19:16.149Z,99738.00
2019-05-19T17:21:58.185Z,99732.00
2019-05-19T17:24:48.268Z,99720.00
2019-05-19T17:27:31.727Z,99720.00
2019-05-19T17:30:07.973Z,99732.00
2019-05-19T17:32:51.464Z,99726.00
2019-05-19T17:35:27.784Z,99720.00
2019-05-19T17:38:10.616Z,99720.00
2019-05-19T17:40:47.880Z,99716.00
2019-05-19T17:43:29.768Z,99719.00
2019-05-19T17:46:08.021Z,99712.00
2019-05-19T17:48:50.919Z,99725.00
2019-05-19T17:51:26.813Z,99712.00
2019-05-19T17:54:08.989Z,99710.00
2019-05-19T17:56:46.722Z,99700.00
2019-05-19T17:59:31.966Z,99700.00
2019-05-19T18:02:14.253Z,99699.00
2019-05-19T18:04:56.959Z,99699.00
2019-05-19T18:07:39.973Z,99708.00
2019-05-19T18:10:23.105Z,99702.00
2019-05-19T18:12:59.048Z,99703.00
2019-05-19T18:15:43.049Z,99703.00
2019-05-19T18:18:18.888Z,99703.00
2019-05-19T18:21:01.885Z,99702.00
2019-05-19T18:23:37.912Z,99696.00
2019-05-19T18:26:22.156Z,99692.00
2019-05-19T18:28:58.559Z,99694.00
2019-05-19T18:31:41.197Z,99691.00
2019-05-19T18:34:24.520Z,99700.00
2019-05-19T18:37:00.324Z,99706.00
2019-05-19T18:39:43.062Z,99705.00
2019-05-19T18:42:32.172Z,99719.00
2019-05-19T18:45:15.041Z,99719.00
2019-05-19T18:47:50.706Z,99724.00
2019-05-19T18:50:33.118Z,99719.00
2019-05-19T18:53:09.571Z,99716.00
2019-05-19T18:55:51.973Z,99707.00
2019-05-19T18:58:35.147Z,99715.00
2019-05-19T19:01:24.398Z,99718.00
2019-05-19T19:04:07.257Z,99709.00
2019-05-19T19:06:43.156Z,99724.00
2019-05-19T19:09:18.833Z,99719.00
2019-05-19T19:12:01.395Z,99719.00
2019-05-19T19:14:36.982Z,99720.00
2019-05-19T19:17:19.757Z,99723.00
2019-05-19T19:19:55.691Z,99726.00
2019-05-19T19:22:38.665Z,99726.00
2019-05-19T19:25:21.228Z,99718.00
2019-05-19T19:27:57.337Z,99724.00
2019-05-19T19:30:33.293Z,99720.00
2019-05-19T19:33:15.769Z,99717.00
2019-05-19T19:35:51.599Z,99709.00
2019-05-19T19:38:34.712Z,99720.00
2019-05-19T19:41:17.487Z,99725.00
2019-05-19T19:44:00.465Z,99719.00
2019-05-19T19:46:53.390Z,99727.00
2019-05-19T19:49:33.550Z,99721.00
2019-05-19T19:52:09.933Z,99726.00
2019-05-19T19:54:45.726Z,99731.00
2019-05-19T19:57:22.122Z,99744.00
2019-05-19T20:00:17.304Z,99729.00
2019-05-19T20:02:49.013Z,99728.00
2019-05-19T20:05:25.113Z,99729.00
2019-05-19T20:08:07.594Z,99728.00
2019-05-19T20:10:44.540Z,99730.00
2019-05-19T20:13:27.134Z,99736.00
2019-05-19T20:16:10.180Z,99734.00
2019-05-19T20:18:59.664Z,99730.00
2019-05-19T20:21:35.302Z,99725.00
2019-05-19T20:24:18.426Z,99734.00
2019-05-19T20:26:54.199Z,99728.00
2019-05-19T20:29:37.437Z,99729.00
2019-05-19T20:32:26.348Z,99723.00
2019-05-19T20:35:08.556Z,99731.00
2019-05-19T20:37:44.947Z,99726.00
2019-05-19T20:40:27.564Z,99722.00
2019-05-19T20:43:10.644Z,99727.00
2019-05-19T20:45:52.995Z,99729.00
2019-05-19T20:48:28.763Z,99727.00
2019-05-19T20:51:12.168Z,99725.00
2019-05-19T20:53:54.958Z,99729.00
2019-05-19T20:56:36.671Z,99722.00
2019-05-19T20:59:12.707Z,99724.00
2019-05-19T21:01:55.551Z,99715.00
2019-05-19T21:04:31.820Z,99716.00
2019-05-19T21:07:14.421Z,99728.00
2019-05-19T21:09:49.933Z,99721.00
2019-05-19T21:12:33.179Z,99730.00
2019-05-19T21:15:09.625Z,99721.00
2019-05-19T21:17:52.335Z,99715.00
2019-05-19T21:20:28.886Z,99717.00
2019-05-19T21:23:12.253Z,99721.00
2019-05-19T21:25:48.676Z,99717.00
2019-05-19T21:28:24.930Z,99725.00
2019-05-19T21:31:05.806Z,99718.00
2019-05-19T21:33:44.957Z,99715.00
2019-05-19T21:36:34.059Z,99715.00
2019-05-19T21:39:11.472Z,99715.00
2019-05-19T21:41:47.725Z,99714.00
2019-05-19T21:44:29.926Z,99714.00
2019-05-19T21:47:05.962Z,99710.00
2019-05-19T21:49:48.436Z,99711.00
2019-05-19T21:52:37.440Z,99716.00
2019-05-19T21:55:20.295Z,99712.00
2019-05-19T21:57:56.319Z,99718.00
2019-05-19T22:00:39.687Z,99710.00
2019-05-19T22:03:21.856Z,99719.00
2019-05-19T22:05:57.465Z,99720.00
2019-05-19T22:08:33.782Z,99719.00
2019-05-19T22:11:16.386Z,99713.00
2019-05-19T22:13:59.502Z,99717.00
2019-05-19T22:16:42.161Z,99712.00
2019-05-19T22:19:24.570Z,99718.00
2019-05-19T22:22:01.161Z,99719.00
2019-05-19T22:24:36.913Z,99717.00
2019-05-19T22:27:19.128Z,99720.00
2019-05-19T22:30:01.476Z,99714.00
2019-05-19T22:32:37.477Z,99721.00
2019-05-19T22:35:21.437Z,99727.00
2019-05-19T22:37:57.425Z,99713.00
2019-05-19T22:40:40.917Z,99717.00
2019-05-19T22:43:16.522Z,99712.00
2019-05-19T22:45:59.100Z,99715.00
2019-05-19T22:48:42.149Z,99710.00
2019-05-19T22:51:17.719Z,99706.00
2019-05-19T22:54:00.658Z,99709.00
2019-05-19T22:56:43.371Z,99712.00
2019-05-19T22:59:20.465Z,99712.00
2019-05-19T23:02:09.439Z,99710.00
2019-05-19T23:04:44.923Z,99711.00
2019-05-19T23:07:27.845Z,99717.00
2019-05-19T23:10:05.769Z,99700.00
2019-05-19T23:12:48.367Z,99706.00
2019-05-19T23:15:24.251Z,99701.00
2019-05-19T23:18:07.013Z,99707.00
2019-05-19T23:20:42.862Z,99707.00
2019-05-19T23:23:25.405Z,99708.00
2019-05-19T23:26:01.360Z,99703.00
2019-05-19T23:28:44.310Z,99702.00
2019-05-19T23:31:19.957Z,99697.00
2019-05-19T23:34:03.088Z,99690.00
2019-05-19T23:36:38.839Z,99699.00
2019-05-19T23:39:21.759Z,99698.00
2019-05-19T23:41:57.582Z,99708.00
2019-05-19T23:44:40.762Z,99701.00
2019-05-19T23:47:23.004Z,99695.00
2019-05-19T23:49:59.181Z,99699.00
2019-05-19T23:52:41.433Z,99699.00
2019-05-19T23:55:24.391Z,99694.00
2019-05-19T23:58:00.184Z,99694.00
